sensor_id;sensor_type;location;lat;lon;timestamp;pressure;altitude;pressure_sealevel;temperature;humidity
61077;BME280;46956;52.186;19.716;2022-08-11T00:05:04;101438.56;;;23.82;38.99
61077;BME280;46956;52.186;19.716;2022-08-11T00:07:41;101423.44;;;23.64;39.34
61077;BME280;46956;52.186;19.716;2022-08-11T00:10:12;101437.72;;;23.69;40.06
61077;BME280;46956;52.186;19.716;2022-08-11T00:12:51;101432.59;;;23.68;39.14
61077;BME280;46956;52.186;19.716;2022-08-11T00:20:58;101429.81;;;23.63;39.09
61077;BME280;46956;52.186;19.716;2022-08-11T00:26:07;101427.16;;;23.51;40.01
61077;BME280;46956;52.186;19.716;2022-08-11T00:28:37;101431.22;;;23.54;40.11
61077;BME280;46956;52.186;19.716;2022-08-11T00:31:33;101426.22;;;23.46;40.19
61077;BME280;46956;52.186;19.716;2022-08-11T00:34:09;101419.59;;;23.36;40.51
61077;BME280;46956;52.186;19.716;2022-08-11T00:36:44;101420.53;;;23.30;41.08
61077;BME280;46956;52.186;19.716;2022-08-11T00:39:15;101420.19;;;23.27;41.49
61077;BME280;46956;52.186;19.716;2022-08-11T00:44:59;101419.09;;;23.16;40.62
61077;BME280;46956;52.186;19.716;2022-08-11T00:50:28;101436.59;;;23.30;40.07
61077;BME280;46956;52.186;19.716;2022-08-11T00:53:31;101411.66;;;23.18;40.75
61077;BME280;46956;52.186;19.716;2022-08-11T00:56:29;101428.91;;;23.22;40.42
61077;BME280;46956;52.186;19.716;2022-08-11T00:59:50;101434.16;;;23.29;41.32
61077;BME280;46956;52.186;19.716;2022-08-11T01:02:57;101425.97;;;23.24;39.96
61077;BME280;46956;52.186;19.716;2022-08-11T01:09:23;101428.09;;;23.22;40.32
61077;BME280;46956;52.186;19.716;2022-08-11T01:12:24;101428.25;;;23.09;40.51
61077;BME280;46956;52.186;19.716;2022-08-11T01:15:27;101433.16;;;23.12;40.33
61077;BME280;46956;52.186;19.716;2022-08-11T01:18:48;101428.63;;;23.12;40.56
61077;BME280;46956;52.186;19.716;2022-08-11T01:43:51;101448.44;;;22.81;42.21
61077;BME280;46956;52.186;19.716;2022-08-11T01:46:51;101435.00;;;22.58;42.17
61077;BME280;46956;52.186;19.716;2022-08-11T01:49:30;101437.13;;;22.68;42.35
61077;BME280;46956;52.186;19.716;2022-08-11T01:57:44;101431.78;;;22.56;42.87
61077;BME280;46956;52.186;19.716;2022-08-11T02:00:30;101438.00;;;22.50;42.76
61077;BME280;46956;52.186;19.716;2022-08-11T02:03:17;101429.59;;;22.46;42.68
61077;BME280;46956;52.186;19.716;2022-08-11T02:09:15;101423.66;;;22.44;41.58
61077;BME280;46956;52.186;19.716;2022-08-11T02:11:57;101423.53;;;22.39;41.87
61077;BME280;46956;52.186;19.716;2022-08-11T02:14:45;101432.09;;;22.48;42.10
61077;BME280;46956;52.186;19.716;2022-08-11T02:17:45;101432.19;;;22.35;42.36
61077;BME280;46956;52.186;19.716;2022-08-11T02:20:26;101428.78;;;22.46;41.86
61077;BME280;46956;52.186;19.716;2022-08-11T02:23:26;101437.03;;;22.44;42.66
61077;BME280;46956;52.186;19.716;2022-08-11T02:32:06;101439.28;;;22.29;43.11
61077;BME280;46956;52.186;19.716;2022-08-11T02:40:48;101429.75;;;22.03;43.23
61077;BME280;46956;52.186;19.716;2022-08-11T02:43:34;101453.97;;;22.20;42.67
61077;BME280;46956;52.186;19.716;2022-08-11T02:48:59;101441.25;;;22.04;41.92
61077;BME280;46956;52.186;19.716;2022-08-11T02:52:06;101443.00;;;22.10;44.11
61077;BME280;46956;52.186;19.716;2022-08-11T02:54:49;101440.84;;;22.00;43.71
61077;BME280;46956;52.186;19.716;2022-08-11T03:00:30;101449.91;;;21.99;42.68
61077;BME280;46956;52.186;19.716;2022-08-11T03:24:55;101419.97;;;21.54;43.72
61077;BME280;46956;52.186;19.716;2022-08-11T03:28:07;101419.75;;;21.56;44.25
61077;BME280;46956;52.186;19.716;2022-08-11T03:31:24;101426.88;;;21.62;43.04
61077;BME280;46956;52.186;19.716;2022-08-11T03:34:20;101436.19;;;21.77;43.69
61077;BME280;46956;52.186;19.716;2022-08-11T03:40:56;101441.38;;;21.91;44.01
61077;BME280;46956;52.186;19.716;2022-08-11T03:47:44;101423.88;;;21.76;44.38
61077;BME280;46956;52.186;19.716;2022-08-11T03:50:49;101427.75;;;21.80;44.48
61077;BME280;46956;52.186;19.716;2022-08-11T04:13:29;101439.00;;;22.01;44.12
61077;BME280;46956;52.186;19.716;2022-08-11T05:12:10;101433.06;;;22.65;45.26
61077;BME280;46956;52.186;19.716;2022-08-11T05:53:12;101468.97;;;23.52;43.96
61077;BME280;46956;52.186;19.716;2022-08-11T05:58:50;101489.09;;;23.90;43.17
61077;BME280;46956;52.186;19.716;2022-08-11T06:04:05;101488.13;;;23.84;42.73
61077;BME280;46956;52.186;19.716;2022-08-11T06:06:49;101498.53;;;23.92;43.28
61077;BME280;46956;52.186;19.716;2022-08-11T06:09:46;101495.59;;;24.05;43.19
61077;BME280;46956;52.186;19.716;2022-08-11T06:12:41;101488.50;;;24.11;43.24
61077;BME280;46956;52.186;19.716;2022-08-11T06:15:15;101480.47;;;24.11;42.72
61077;BME280;46956;52.186;19.716;2022-08-11T06:17:54;101493.44;;;24.31;42.67
61077;BME280;46956;52.186;19.716;2022-08-11T06:20:30;101476.78;;;24.29;43.10
61077;BME280;46956;52.186;19.716;2022-08-11T06:23:10;101492.34;;;24.43;42.29
61077;BME280;46956;52.186;19.716;2022-08-11T06:25:53;101486.63;;;24.51;41.93
61077;BME280;46956;52.186;19.716;2022-08-11T06:31:10;101486.47;;;24.70;41.81
61077;BME280;46956;52.186;19.716;2022-08-11T06:34:10;101463.53;;;24.62;42.23
61077;BME280;46956;52.186;19.716;2022-08-11T06:39:59;101490.63;;;24.94;41.78
61077;BME280;46956;52.186;19.716;2022-08-11T06:42:46;101480.56;;;25.68;41.04
61077;BME280;46956;52.186;19.716;2022-08-11T06:45:28;101495.41;;;25.20;40.38
61077;BME280;46956;52.186;19.716;2022-08-11T06:48:06;101472.81;;;25.88;39.73
61077;BME280;46956;52.186;19.716;2022-08-11T06:50:49;101479.22;;;25.49;40.32
61077;BME280;46956;52.186;19.716;2022-08-11T06:53:32;101477.19;;;25.56;40.96
61077;BME280;46956;52.186;19.716;2022-08-11T06:56:06;101471.38;;;25.64;40.86
61077;BME280;46956;52.186;19.716;2022-08-11T07:04:17;101462.47;;;25.97;40.20
61077;BME280;46956;52.186;19.716;2022-08-11T07:07:05;101460.03;;;25.79;38.45
61077;BME280;46956;52.186;19.716;2022-08-11T07:10:26;101457.88;;;25.97;39.03
61077;BME280;46956;52.186;19.716;2022-08-11T07:13:20;101455.47;;;25.96;38.73
61077;BME280;46956;52.186;19.716;2022-08-11T07:21:55;101457.56;;;26.37;38.69
61077;BME280;46956;52.186;19.716;2022-08-11T07:24:53;101457.69;;;26.48;38.31
61077;BME280;46956;52.186;19.716;2022-08-11T07:27:46;101445.69;;;26.55;38.68
61077;BME280;46956;52.186;19.716;2022-08-11T07:33:29;101453.69;;;26.77;36.95
61077;BME280;46956;52.186;19.716;2022-08-11T07:36:24;101448.34;;;26.82;36.21
61077;BME280;46956;52.186;19.716;2022-08-11T07:39:07;101438.22;;;26.94;37.43
61077;BME280;46956;52.186;19.716;2022-08-11T07:41:57;101446.47;;;27.14;36.14
61077;BME280;46956;52.186;19.716;2022-08-11T07:53:00;101447.34;;;27.62;35.75
61077;BME280;46956;52.186;19.716;2022-08-11T07:55:34;101428.75;;;27.61;35.84
61077;BME280;46956;52.186;19.716;2022-08-11T07:58:21;101430.16;;;27.73;35.73
61077;BME280;46956;52.186;19.716;2022-08-11T08:01:18;101418.38;;;27.79;33.87
61077;BME280;46956;52.186;19.716;2022-08-11T08:04:06;101440.00;;;27.94;34.45
61077;BME280;46956;52.186;19.716;2022-08-11T08:06:55;101426.53;;;28.00;33.50
61077;BME280;46956;52.186;19.716;2022-08-11T08:09:44;101445.47;;;28.15;32.67
61077;BME280;46956;52.186;19.716;2022-08-11T08:12:31;101448.72;;;28.22;33.26
61077;BME280;46956;52.186;19.716;2022-08-11T08:15:19;101440.66;;;28.27;33.91
61077;BME280;46956;52.186;19.716;2022-08-11T08:18:10;101446.03;;;29.89;31.55
61077;BME280;46956;52.186;19.716;2022-08-11T08:20:55;101456.94;;;28.67;32.55
61077;BME280;46956;52.186;19.716;2022-08-11T08:23:44;101446.94;;;28.73;32.33
61077;BME280;46956;52.186;19.716;2022-08-11T08:29:20;101452.09;;;28.90;32.55
61077;BME280;46956;52.186;19.716;2022-08-11T08:32:25;101461.56;;;29.02;31.51
61077;BME280;46956;52.186;19.716;2022-08-11T08:35:04;101432.94;;;29.22;31.11
61077;BME280;46956;52.186;19.716;2022-08-11T08:37:41;101445.88;;;29.25;30.98
61077;BME280;46956;52.186;19.716;2022-08-11T08:40:13;101449.34;;;29.61;29.83
61077;BME280;46956;52.186;19.716;2022-08-11T08:45:33;101441.81;;;29.58;29.68
61077;BME280;46956;52.186;19.716;2022-08-11T08:51:19;101445.50;;;29.87;30.68
61077;BME280;46956;52.186;19.716;2022-08-11T08:54:26;101430.31;;;29.96;30.40
61077;BME280;46956;52.186;19.716;2022-08-11T09:02:24;101433.41;;;30.34;29.28
61077;BME280;46956;52.186;19.716;2022-08-11T09:10:18;101412.97;;;30.51;27.88
61077;BME280;46956;52.186;19.716;2022-08-11T09:12:53;101422.44;;;30.54;28.12
61077;BME280;46956;52.186;19.716;2022-08-11T09:15:34;101435.66;;;30.60;27.66
61077;BME280;46956;52.186;19.716;2022-08-11T09:20:46;101424.84;;;30.55;27.28
61077;BME280;46956;52.186;19.716;2022-08-11T09:31:38;101431.44;;;31.12;26.22
61077;BME280;46956;52.186;19.716;2022-08-11T09:34:09;101415.97;;;31.18;26.91
61077;BME280;46956;52.186;19.716;2022-08-11T09:36:41;101417.16;;;31.35;26.97
61077;BME280;46956;52.186;19.716;2022-08-11T09:39:31;101411.50;;;31.32;27.10
61077;BME280;46956;52.186;19.716;2022-08-11T09:42:23;101418.88;;;31.26;26.37
61077;BME280;46956;52.186;19.716;2022-08-11T09:45:11;101403.97;;;31.24;25.86
61077;BME280;46956;52.186;19.716;2022-08-11T09:47:44;101402.22;;;31.38;26.09
61077;BME280;46956;52.186;19.716;2022-08-11T09:50:25;101393.22;;;31.43;25.28
61077;BME280;46956;52.186;19.716;2022-08-11T09:55:56;101392.22;;;31.57;26.20
61077;BME280;46956;52.186;19.716;2022-08-11T10:03:59;101407.88;;;32.08;24.77
61077;BME280;46956;52.186;19.716;2022-08-11T10:09:40;101399.06;;;32.53;24.75
61077;BME280;46956;52.186;19.716;2022-08-11T10:15:02;101401.47;;;31.80;24.32
61077;BME280;46956;52.186;19.716;2022-08-11T10:17:54;101398.47;;;31.82;25.56
61077;BME280;46956;52.186;19.716;2022-08-11T10:32:24;101372.59;;;32.08;23.58
61077;BME280;46956;52.186;19.716;2022-08-11T10:35:20;101382.50;;;32.36;24.82
61077;BME280;46956;52.186;19.716;2022-08-11T10:46:29;101376.31;;;33.01;23.64
61077;BME280;46956;52.186;19.716;2022-08-11T10:49:22;101369.44;;;33.03;24.17
61077;BME280;46956;52.186;19.716;2022-08-11T10:51:55;101358.66;;;32.84;22.59
61077;BME280;46956;52.186;19.716;2022-08-11T10:54:43;101373.53;;;32.55;23.68
61077;BME280;46956;52.186;19.716;2022-08-11T10:57:32;101366.22;;;32.36;23.11
61077;BME280;46956;52.186;19.716;2022-08-11T11:00:32;101361.53;;;32.42;23.26
61077;BME280;46956;52.186;19.716;2022-08-11T11:03:09;101358.94;;;32.50;24.49
61077;BME280;46956;52.186;19.716;2022-08-11T11:05:54;101342.03;;;32.72;24.01
61077;BME280;46956;52.186;19.716;2022-08-11T11:08:30;101343.66;;;32.87;23.36
61077;BME280;46956;52.186;19.716;2022-08-11T11:11:22;101320.34;;;32.86;23.20
61077;BME280;46956;52.186;19.716;2022-08-11T11:13:51;101328.72;;;32.71;23.97
61077;BME280;46956;52.186;19.716;2022-08-11T11:16:40;101341.06;;;32.49;23.21
61077;BME280;46956;52.186;19.716;2022-08-11T11:19:37;101337.22;;;32.50;23.28
61077;BME280;46956;52.186;19.716;2022-08-11T11:25:19;101307.81;;;32.71;24.60
61077;BME280;46956;52.186;19.716;2022-08-11T11:27:53;101318.91;;;33.02;23.72
61077;BME280;46956;52.186;19.716;2022-08-11T11:30:31;101309.25;;;33.10;23.17
61077;BME280;46956;52.186;19.716;2022-08-11T11:33:12;101316.31;;;33.11;23.18
61077;BME280;46956;52.186;19.716;2022-08-11T11:38:39;101299.53;;;33.36;23.91
61077;BME280;46956;52.186;19.716;2022-08-11T11:44:10;101289.84;;;33.44;21.95
61077;BME280;46956;52.186;19.716;2022-08-11T11:49:28;101287.75;;;33.27;21.81
61077;BME280;46956;52.186;19.716;2022-08-11T11:54:39;101284.59;;;33.34;22.80
61077;BME280;46956;52.186;19.716;2022-08-11T11:57:17;101270.50;;;33.45;22.01
61077;BME280;46956;52.186;19.716;2022-08-11T12:00:10;101252.53;;;33.58;22.26
61077;BME280;46956;52.186;19.716;2022-08-11T12:03:09;101270.47;;;33.95;22.15
61077;BME280;46956;52.186;19.716;2022-08-11T12:08:25;101268.13;;;34.24;21.09
61077;BME280;46956;52.186;19.716;2022-08-11T12:16:42;101259.50;;;34.84;20.30
61077;BME280;46956;52.186;19.716;2022-08-11T12:19:23;101259.19;;;34.86;21.29
61077;BME280;46956;52.186;19.716;2022-08-11T12:22:01;101253.09;;;34.97;20.30
61077;BME280;46956;52.186;19.716;2022-08-11T12:24:49;101234.66;;;34.94;20.46
61077;BME280;46956;52.186;19.716;2022-08-11T12:27:40;101241.13;;;35.07;20.29
61077;BME280;46956;52.186;19.716;2022-08-11T12:30:10;101238.88;;;35.17;20.52
61077;BME280;46956;52.186;19.716;2022-08-11T12:35:18;101234.53;;;35.16;20.21
61077;BME280;46956;52.186;19.716;2022-08-11T12:37:51;101226.88;;;35.18;19.99
61077;BME280;46956;52.186;19.716;2022-08-11T12:40:30;101221.94;;;35.29;19.74
61077;BME280;46956;52.186;19.716;2022-08-11T12:43:42;101222.88;;;35.33;19.91
61077;BME280;46956;52.186;19.716;2022-08-11T12:46:34;101239.56;;;35.40;19.21
61077;BME280;46956;52.186;19.716;2022-08-11T12:49:21;101221.13;;;35.20;19.82
61077;BME280;46956;52.186;19.716;2022-08-11T12:52:24;101217.72;;;35.14;20.09
61077;BME280;46956;52.186;19.716;2022-08-11T13:00:37;101231.03;;;35.16;19.43
61077;BME280;46956;52.186;19.716;2022-08-11T13:03:25;101206.63;;;35.02;19.17
61077;BME280;46956;52.186;19.716;2022-08-11T13:06:28;101207.13;;;35.13;19.72
61077;BME280;46956;52.186;19.716;2022-08-11T13:08:59;101206.69;;;35.20;18.77
61077;BME280;46956;52.186;19.716;2022-08-11T13:11:32;101203.78;;;35.25;19.02
61077;BME280;46956;52.186;19.716;2022-08-11T13:14:26;101198.13;;;36.24;18.44
61077;BME280;46956;52.186;19.716;2022-08-11T13:16:57;101209.09;;;35.47;19.79
61077;BME280;46956;52.186;19.716;2022-08-11T13:19:46;101200.59;;;35.31;19.15
61077;BME280;46956;52.186;19.716;2022-08-11T13:24:59;101197.88;;;35.23;19.54
61077;BME280;46956;52.186;19.716;2022-08-11T13:30:03;101176.22;;;35.52;19.54
61077;BME280;46956;52.186;19.716;2022-08-11T13:35:32;101196.25;;;35.65;19.65
61077;BME280;46956;52.186;19.716;2022-08-11T13:40:47;101199.66;;;35.53;19.97
61077;BME280;46956;52.186;19.716;2022-08-11T13:43:38;101191.78;;;35.34;19.59
61077;BME280;46956;52.186;19.716;2022-08-11T13:46:13;101199.09;;;35.16;19.82
61077;BME280;46956;52.186;19.716;2022-08-11T13:52:00;101181.69;;;34.69;20.02
61077;BME280;46956;52.186;19.716;2022-08-11T13:57:13;101184.66;;;34.20;19.93
61077;BME280;46956;52.186;19.716;2022-08-11T14:05:52;101175.00;;;34.45;19.26
61077;BME280;46956;52.186;19.716;2022-08-11T14:14:04;101168.78;;;35.09;19.04
61077;BME280;46956;52.186;19.716;2022-08-11T14:16:39;101170.44;;;35.36;19.63
61077;BME280;46956;52.186;19.716;2022-08-11T14:19:12;101178.78;;;35.83;19.04
61077;BME280;46956;52.186;19.716;2022-08-11T14:21:42;101167.00;;;36.00;19.04
61077;BME280;46956;52.186;19.716;2022-08-11T14:24:37;101168.91;;;36.08;18.47
61077;BME280;46956;52.186;19.716;2022-08-11T14:27:14;101174.25;;;35.87;18.39
61077;BME280;46956;52.186;19.716;2022-08-11T14:32:39;101169.78;;;34.65;20.00
61077;BME280;46956;52.186;19.716;2022-08-11T14:35:22;101174.69;;;34.15;20.07
61077;BME280;46956;52.186;19.716;2022-08-11T14:37:56;101175.75;;;33.75;20.96
61077;BME280;46956;52.186;19.716;2022-08-11T14:40:32;101186.22;;;33.45;21.62
61077;BME280;46956;52.186;19.716;2022-08-11T14:46:32;101179.34;;;32.71;21.64
61077;BME280;46956;52.186;19.716;2022-08-11T14:57:22;101225.00;;;32.55;23.35
61077;BME280;46956;52.186;19.716;2022-08-11T15:00:15;101219.75;;;32.31;25.01
61077;BME280;46956;52.186;19.716;2022-08-11T15:02:49;101231.06;;;32.20;25.85
61077;BME280;46956;52.186;19.716;2022-08-11T15:08:26;101222.59;;;31.32;27.83
61077;BME280;46956;52.186;19.716;2022-08-11T15:11:18;101232.69;;;31.03;28.59
61077;BME280;46956;52.186;19.716;2022-08-11T15:16:41;101229.09;;;30.60;29.08
61077;BME280;46956;52.186;19.716;2022-08-11T15:22:09;101232.03;;;30.35;29.48
61077;BME280;46956;52.186;19.716;2022-08-11T15:25:00;101233.72;;;30.31;29.86
61077;BME280;46956;52.186;19.716;2022-08-11T15:27:32;101231.81;;;30.31;30.09
61077;BME280;46956;52.186;19.716;2022-08-11T15:30:20;101224.19;;;30.38;30.01
61077;BME280;46956;52.186;19.716;2022-08-11T15:33:08;101219.63;;;30.34;30.25
61077;BME280;46956;52.186;19.716;2022-08-11T15:35:59;101222.47;;;30.47;30.94
61077;BME280;46956;52.186;19.716;2022-08-11T15:38:57;101225.38;;;30.80;30.35
61077;BME280;46956;52.186;19.716;2022-08-11T15:41:40;101230.78;;;31.04;29.81
61077;BME280;46956;52.186;19.716;2022-08-11T15:44:33;101256.78;;;31.05;29.94
61077;BME280;46956;52.186;19.716;2022-08-11T15:47:36;101258.41;;;31.06;28.71
61077;BME280;46956;52.186;19.716;2022-08-11T15:52:51;101248.03;;;30.60;28.96
61077;BME280;46956;52.186;19.716;2022-08-11T15:55:21;101255.38;;;30.31;29.14
61077;BME280;46956;52.186;19.716;2022-08-11T15:57:53;101227.78;;;29.95;28.07
61077;BME280;46956;52.186;19.716;2022-08-11T16:00:50;101238.38;;;29.86;28.67
61077;BME280;46956;52.186;19.716;2022-08-11T16:03:53;101243.84;;;29.81;29.65
61077;BME280;46956;52.186;19.716;2022-08-11T16:06:46;101225.03;;;29.61;30.21
61077;BME280;46956;52.186;19.716;2022-08-11T16:09:21;101234.25;;;29.55;31.13
61077;BME280;46956;52.186;19.716;2022-08-11T16:25:33;101201.44;;;28.17;32.64
61077;BME280;46956;52.186;19.716;2022-08-11T16:33:28;101189.84;;;27.97;32.86
61077;BME280;46956;52.186;19.716;2022-08-11T16:38:54;101187.66;;;28.09;33.73
61077;BME280;46956;52.186;19.716;2022-08-11T16:44:20;101190.53;;;28.73;31.72
61077;BME280;46956;52.186;19.716;2022-08-11T16:47:28;101184.59;;;30.18;30.64
61077;BME280;46956;52.186;19.716;2022-08-11T16:50:22;101189.50;;;29.33;30.45
61077;BME280;46956;52.186;19.716;2022-08-11T16:53:02;101188.38;;;29.44;30.72
61077;BME280;46956;52.186;19.716;2022-08-11T16:55:33;101175.88;;;29.54;31.31
61077;BME280;46956;52.186;19.716;2022-08-11T16:58:21;101186.06;;;30.01;30.58
61077;BME280;46956;52.186;19.716;2022-08-11T17:01:14;101187.31;;;30.18;29.67
61077;BME280;46956;52.186;19.716;2022-08-11T17:03:54;101175.50;;;30.04;29.75
61077;BME280;46956;52.186;19.716;2022-08-11T17:06:48;101184.47;;;30.34;29.76
61077;BME280;46956;52.186;19.716;2022-08-11T17:09:59;101186.41;;;30.52;29.18
61077;BME280;46956;52.186;19.716;2022-08-11T17:13:07;101174.78;;;30.51;28.90
61077;BME280;46956;52.186;19.716;2022-08-11T17:15:41;101191.06;;;30.75;29.10
61077;BME280;46956;52.186;19.716;2022-08-11T17:18:30;101183.56;;;30.91;28.68
61077;BME280;46956;52.186;19.716;2022-08-11T17:21:17;101170.41;;;31.03;28.17
61077;BME280;46956;52.186;19.716;2022-08-11T17:23:47;101188.00;;;31.24;28.04
61077;BME280;46956;52.186;19.716;2022-08-11T17:26:27;101182.31;;;31.26;27.82
61077;BME280;46956;52.186;19.716;2022-08-11T17:29:19;101186.81;;;31.12;28.20
61077;BME280;46956;52.186;19.716;2022-08-11T17:31:52;101180.78;;;30.96;28.59
61077;BME280;46956;52.186;19.716;2022-08-11T17:34:51;101188.91;;;30.96;28.73
61077;BME280;46956;52.186;19.716;2022-08-11T17:37:45;101190.06;;;30.90;28.68
61077;BME280;46956;52.186;19.716;2022-08-11T17:40:27;101189.09;;;30.81;29.22
61077;BME280;46956;52.186;19.716;2022-08-11T17:43:06;101184.19;;;30.83;28.91
61077;BME280;46956;52.186;19.716;2022-08-11T17:45:56;101191.75;;;30.62;29.10
61077;BME280;46956;52.186;19.716;2022-08-11T17:51:34;101184.00;;;30.21;29.75
61077;BME280;46956;52.186;19.716;2022-08-11T17:54:24;101181.94;;;30.13;29.25
61077;BME280;46956;52.186;19.716;2022-08-11T17:57:10;101192.53;;;30.10;29.26
61077;BME280;46956;52.186;19.716;2022-08-11T18:00:00;101175.78;;;29.69;29.57
61077;BME280;46956;52.186;19.716;2022-08-11T18:05:24;101188.09;;;29.41;30.20
61077;BME280;46956;52.186;19.716;2022-08-11T18:14:09;101193.94;;;29.14;31.01
61077;BME280;46956;52.186;19.716;2022-08-11T18:17:11;101195.84;;;29.08;31.13
61077;BME280;46956;52.186;19.716;2022-08-11T18:19:58;101191.56;;;28.92;31.68
61077;BME280;46956;52.186;19.716;2022-08-11T18:22:51;101195.38;;;28.81;31.83
61077;BME280;46956;52.186;19.716;2022-08-11T18:25:46;101185.16;;;28.73;31.47
61077;BME280;46956;52.186;19.716;2022-08-11T18:31:12;101205.16;;;28.57;32.27
61077;BME280;46956;52.186;19.716;2022-08-11T18:34:06;101197.66;;;28.49;32.67
61077;BME280;46956;52.186;19.716;2022-08-11T18:37:01;101211.88;;;28.64;33.09
61077;BME280;46956;52.186;19.716;2022-08-11T18:42:52;101221.91;;;28.13;34.36
61077;BME280;46956;52.186;19.716;2022-08-11T18:45:46;101215.16;;;28.01;34.21
61077;BME280;46956;52.186;19.716;2022-08-11T18:48:49;101213.00;;;27.92;34.17
61077;BME280;46956;52.186;19.716;2022-08-11T18:51:54;101211.38;;;27.76;33.56
61077;BME280;46956;52.186;19.716;2022-08-11T18:54:48;101218.34;;;27.67;34.24
61077;BME280;46956;52.186;19.716;2022-08-11T18:57:46;101236.38;;;27.62;34.72
61077;BME280;46956;52.186;19.716;2022-08-11T19:00:35;101234.75;;;27.55;34.89
61077;BME280;46956;52.186;19.716;2022-08-11T19:03:29;101219.34;;;27.46;34.47
61077;BME280;46956;52.186;19.716;2022-08-11T19:06:23;101223.38;;;27.38;34.85
61077;BME280;46956;52.186;19.716;2022-08-11T19:09:17;101227.13;;;27.32;35.00
61077;BME280;46956;52.186;19.716;2022-08-11T19:12:12;101230.38;;;27.29;35.77
61077;BME280;46956;52.186;19.716;2022-08-11T19:15:00;101227.00;;;27.74;34.68
61077;BME280;46956;52.186;19.716;2022-08-11T19:20:24;101228.09;;;27.11;36.14
61077;BME280;46956;52.186;19.716;2022-08-11T19:23:22;101231.28;;;27.03;36.46
61077;BME280;46956;52.186;19.716;2022-08-11T19:26:17;101229.09;;;26.95;36.01
61077;BME280;46956;52.186;19.716;2022-08-11T19:32:18;101220.66;;;26.71;36.83
61077;BME280;46956;52.186;19.716;2022-08-11T19:35:06;101216.56;;;26.63;36.67
61077;BME280;46956;52.186;19.716;2022-08-11T19:37:59;101232.97;;;26.62;37.34
61077;BME280;46956;52.186;19.716;2022-08-11T19:40:52;101223.44;;;26.49;37.61
61077;BME280;46956;52.186;19.716;2022-08-11T19:43:45;101226.31;;;26.37;37.46
61077;BME280;46956;52.186;19.716;2022-08-11T19:49:13;101234.03;;;26.29;37.48
61077;BME280;46956;52.186;19.716;2022-08-11T19:52:02;101233.78;;;26.30;37.75
61077;BME280;46956;52.186;19.716;2022-08-11T19:54:51;101238.06;;;26.26;38.15
61077;BME280;46956;52.186;19.716;2022-08-11T19:57:40;101228.81;;;26.12;38.05
61077;BME280;46956;52.186;19.716;2022-08-11T20:00:32;101242.75;;;26.09;38.22
61077;BME280;46956;52.186;19.716;2022-08-11T20:03:21;101245.94;;;26.06;38.18
61077;BME280;46956;52.186;19.716;2022-08-11T20:06:09;101251.28;;;26.01;38.59
61077;BME280;46956;52.186;19.716;2022-08-11T20:08:59;101250.09;;;25.92;37.88
61077;BME280;46956;52.186;19.716;2022-08-11T20:11:54;101247.34;;;25.87;38.21
61077;BME280;46956;52.186;19.716;2022-08-11T20:14:53;101248.16;;;25.87;38.54
61077;BME280;46956;52.186;19.716;2022-08-11T20:20:17;101233.44;;;25.68;38.91
61077;BME280;46956;52.186;19.716;2022-08-11T20:23:07;101246.09;;;25.67;38.89
61077;BME280;46956;52.186;19.716;2022-08-11T20:25:59;101245.97;;;25.57;38.73
61077;BME280;46956;52.186;19.716;2022-08-11T20:28:59;101244.28;;;25.51;38.72
61077;BME280;46956;52.186;19.716;2022-08-11T20:34:39;101246.03;;;25.41;39.43
61077;BME280;46956;52.186;19.716;2022-08-11T20:46:24;101250.28;;;25.15;39.83
61077;BME280;46956;52.186;19.716;2022-08-11T20:49:18;101248.56;;;27.12;36.34
61077;BME280;46956;52.186;19.716;2022-08-11T20:55:15;101247.63;;;25.20;39.58
61077;BME280;46956;52.186;19.716;2022-08-11T20:58:07;101257.41;;;25.09;39.85
61077;BME280;46956;52.186;19.716;2022-08-11T21:01:15;101260.81;;;25.00;39.82
61077;BME280;46956;52.186;19.716;2022-08-11T21:04:06;101239.94;;;24.85;39.96
61077;BME280;46956;52.186;19.716;2022-08-11T21:06:58;101261.94;;;24.87;40.93
61077;BME280;46956;52.186;19.716;2022-08-11T21:09:59;101264.38;;;24.88;40.61
61077;BME280;46956;52.186;19.716;2022-08-11T21:12:51;101249.22;;;24.77;40.37
61077;BME280;46956;52.186;19.716;2022-08-11T21:15:38;101248.31;;;24.55;40.83
61077;BME280;46956;52.186;19.716;2022-08-11T21:18:31;101233.94;;;24.28;41.84
61077;BME280;46956;52.186;19.716;2022-08-11T21:24:26;101247.75;;;24.36;42.39
61077;BME280;46956;52.186;19.716;2022-08-11T21:27:20;101238.56;;;24.32;42.63
61077;BME280;46956;52.186;19.716;2022-08-11T21:38:28;101235.72;;;24.22;42.55
61077;BME280;46956;52.186;19.716;2022-08-11T21:44:17;101258.22;;;24.38;42.23
61077;BME280;46956;52.186;19.716;2022-08-11T21:50:02;101254.81;;;24.26;41.73
61077;BME280;46956;52.186;19.716;2022-08-11T21:52:52;101251.81;;;24.22;42.10
61077;BME280;46956;52.186;19.716;2022-08-11T22:15:47;101265.19;;;24.89;40.24
61077;BME280;46956;52.186;19.716;2022-08-11T22:18:39;101254.69;;;25.04;39.33
61077;BME280;46956;52.186;19.716;2022-08-11T22:24:33;101245.94;;;24.92;39.63
61077;BME280;46956;52.186;19.716;2022-08-11T22:27:20;101253.19;;;25.13;38.51
61077;BME280;46956;52.186;19.716;2022-08-11T22:30:16;101243.81;;;25.16;39.15
61077;BME280;46956;52.186;19.716;2022-08-11T22:35:50;101242.56;;;24.63;40.18
61077;BME280;46956;52.186;19.716;2022-08-11T22:44:21;101236.03;;;25.85;37.78
61077;BME280;46956;52.186;19.716;2022-08-11T22:47:10;101233.91;;;26.14;36.77
61077;BME280;46956;52.186;19.716;2022-08-11T22:52:58;101233.91;;;26.14;37.01
61077;BME280;46956;52.186;19.716;2022-08-11T22:55:52;101240.34;;;24.77;39.39